Terminal Aerodrome Forecast
Issued by NWS Wilmington, OH

Home | Current Version | Previous Version | Text Only | Print | Product List | Glossary On
Versions: 1 2 3 4 5 6 7 8 9 10 11 12 13 14 15 16 17 18 19 20 21 22 23 24
000
FTUS41 KILN 141100
TAFILN
TAF
KILN 141139Z 1412/1512 26016G22KT 5SM +RA BR VCTS BKN004 OVC024CB
      TEMPO 1412/1413 2SM -SHRA BR OVC004
     FM141500 23008KT P6SM SCT035 BKN100
     FM142200 23010KT P6SM VCSH BKN040
     FM150200 24008KT P6SM SCT040
     FM150800 29010KT P6SM FEW040=

USA.gov is the U.S. government's official web portal to all federal, state and local government web resources and services.